Time;durP1;ratioP1;P1;durP2;ratioP2;P2;SDS_P1;SDS_P2;PMS_P1;PMS_P2;Temp;Humidity;BMP_temperature;BMP_pressure;BME280_temperature;BME280_humidity;BME280_pressure;Samples;Min_cycle;Max_cycle;Signal;HPM_P1;HPM_P2
2023/10/09 00:01:17;;;;;;;9.37;7.23;;;17.60;99.90;;;;;;5093120;28;20199;-72
2023/10/09 00:03:52;;;;;;;9.53;7.80;;;17.50;99.90;;;;;;5092112;28;20508;-71
2023/10/09 00:06:23;;;;;;;9.17;7.33;;;17.50;99.90;;;;;;5092742;28;20171;-72
2023/10/09 00:08:54;;;;;;;11.80;8.38;;;17.50;99.90;;;;;;5092588;28;20199;-71
2023/10/09 00:11:20;;;;;;;10.63;7.80;;;17.50;99.90;;;;;;5093240;28;20225;-73
2023/10/09 00:13:51;;;;;;;10.13;7.60;;;17.50;99.90;;;;;;5093140;28;20259;-71
2023/10/09 00:16:35;;;;;;;11.53;7.77;;;17.50;99.90;;;;;;5092941;28;20180;-72
2023/10/09 00:19:26;;;;;;;10.47;7.70;;;17.50;99.90;;;;;;5092949;28;20666;-71
2023/10/09 00:21:55;;;;;;;9.77;7.38;;;17.50;99.90;;;;;;5092362;28;20266;-72
2023/10/09 00:24:23;;;;;;;9.33;7.53;;;17.40;99.90;;;;;;5093062;28;20168;-72
2023/10/09 00:27:01;;;;;;;12.73;8.13;;;17.40;99.90;;;;;;5092975;28;20647;-71
2023/10/09 00:29:34;;;;;;;13.05;8.27;;;17.40;99.90;;;;;;5091553;28;20176;-71
2023/10/09 00:34:44;;;;;;;12.03;8.67;;;17.40;99.90;;;;;;5093109;28;20187;-71
2023/10/09 00:37:16;;;;;;;10.07;7.80;;;17.30;99.90;;;;;;5092382;28;20636;-71
2023/10/09 00:39:43;;;;;;;11.03;8.37;;;17.30;99.90;;;;;;5092607;28;20168;-71
2023/10/09 00:42:12;;;;;;;15.52;8.60;;;17.30;99.90;;;;;;5092601;28;20191;-71
2023/10/09 00:44:48;;;;;;;9.77;8.23;;;17.20;99.90;;;;;;5093059;28;20172;-71
2023/10/09 00:47:22;;;;;;;13.47;8.03;;;17.30;99.90;;;;;;5096306;28;20576;-71
2023/10/09 00:53:01;;;;;;;10.33;7.80;;;17.30;99.90;;;;;;5096109;28;20174;-71
2023/10/09 00:55:45;;;;;;;13.07;10.10;;;17.30;99.90;;;;;;5095855;28;20520;-71
2023/10/09 00:58:15;;;;;;;10.03;8.13;;;17.20;99.90;;;;;;5095902;28;20186;-71
2023/10/09 01:05:51;;;;;;;10.73;8.23;;;17.00;99.90;;;;;;5095737;28;20176;-72
2023/10/09 01:08:25;;;;;;;9.27;8.23;;;16.90;99.90;;;;;;5095806;28;20179;-71
2023/10/09 01:10:56;;;;;;;11.43;8.93;;;16.90;99.90;;;;;;5095735;28;20184;-71
2023/10/09 01:13:39;;;;;;;11.13;8.50;;;16.90;99.90;;;;;;5095944;28;20172;-71
2023/10/09 01:16:06;;;;;;;16.07;8.70;;;17.00;99.90;;;;;;5095581;28;20164;-71
2023/10/09 01:18:37;;;;;;;13.70;9.13;;;16.90;99.90;;;;;;5095533;28;20156;-72
2023/10/09 01:21:03;;;;;;;12.17;8.67;;;16.90;99.90;;;;;;5095114;28;20223;-72
2023/10/09 01:23:29;;;;;;;13.57;8.57;;;16.90;99.90;;;;;;5095548;28;20631;-71
2023/10/09 01:25:55;;;;;;;9.57;8.40;;;16.90;99.90;;;;;;5095529;28;20160;-71
2023/10/09 01:28:21;;;;;;;10.53;8.53;;;16.90;99.90;;;;;;5095377;28;20175;-71
2023/10/09 01:30:47;;;;;;;12.07;9.17;;;16.90;99.90;;;;;;5094180;28;20630;-71
2023/10/09 01:33:22;;;;;;;12.90;8.70;;;16.80;99.90;;;;;;5094112;28;20211;-71
2023/10/09 01:35:48;;;;;;;12.27;8.57;;;16.90;99.90;;;;;;5094868;28;20172;-72
2023/10/09 01:38:15;;;;;;;12.70;9.07;;;16.80;99.90;;;;;;5095217;28;20164;-72
2023/10/09 01:40:43;;;;;;;20.47;9.50;;;16.80;99.90;;;;;;5095491;28;20164;-71
2023/10/09 01:43:10;;;;;;;10.47;8.60;;;16.70;99.90;;;;;;5095149;28;20574;-71
2023/10/09 01:45:46;;;;;;;12.03;8.83;;;16.70;99.90;;;;;;5095231;28;20176;-71
2023/10/09 01:48:14;;;;;;;10.63;8.77;;;16.70;99.90;;;;;;5095006;28;20187;-71
2023/10/09 01:50:41;;;;;;;12.37;8.70;;;16.70;99.90;;;;;;5093633;28;20179;-71
2023/10/09 01:53:08;;;;;;;13.20;9.10;;;16.70;99.90;;;;;;5094841;28;20183;-71
2023/10/09 01:55:40;;;;;;;11.93;8.97;;;16.70;99.90;;;;;;5094931;28;20176;-71
2023/10/09 01:58:24;;;;;;;11.77;8.93;;;16.80;99.90;;;;;;5094817;28;20182;-72
2023/10/09 02:00:56;;;;;;;13.27;9.33;;;16.80;99.90;;;;;;5094612;28;20245;-72
2023/10/09 02:03:26;;;;;;;12.03;8.40;;;16.80;99.90;;;;;;5094595;28;20172;-71
2023/10/09 02:06:24;;;;;;;15.13;9.50;;;16.80;99.90;;;;;;5094636;28;20164;-71
2023/10/09 02:08:54;;;;;;;11.83;8.67;;;16.80;99.90;;;;;;5094533;28;20188;-71
2023/10/09 02:11:35;;;;;;;11.30;8.83;;;16.80;99.90;;;;;;5094660;28;20191;-72
2023/10/09 02:14:01;;;;;;;15.33;9.40;;;16.80;99.90;;;;;;5094659;28;20198;-72
2023/10/09 02:16:41;;;;;;;12.87;9.20;;;16.80;99.90;;;;;;5094633;28;20635;-71
2023/10/09 02:19:08;;;;;;;13.03;9.30;;;16.80;99.90;;;;;;5094184;28;20212;-71
2023/10/09 02:21:39;;;;;;;14.97;9.90;;;16.80;99.90;;;;;;5092878;28;20697;-71
2023/10/09 02:24:07;;;;;;;12.00;9.17;;;16.70;99.90;;;;;;5094543;28;20168;-71
2023/10/09 02:28:59;;;;;;;17.50;10.10;;;16.70;99.90;;;;;;5094320;28;20633;-71
2023/10/09 02:31:35;;;;;;;12.07;8.83;;;16.70;99.90;;;;;;5094153;28;20206;-71
2023/10/09 02:34:05;;;;;;;13.67;9.50;;;16.70;99.90;;;;;;5093970;28;20178;-71
2023/10/09 02:36:31;;;;;;;15.70;10.13;;;16.80;99.90;;;;;;5094212;28;20175;-71
2023/10/09 02:38:57;;;;;;;13.90;9.83;;;16.70;99.90;;;;;;5094202;28;20172;-71
2023/10/09 02:41:23;;;;;;;13.67;9.60;;;16.70;99.90;;;;;;5093904;28;20727;-72
2023/10/09 02:43:55;;;;;;;15.90;9.83;;;16.70;99.90;;;;;;5093924;28;20207;-72
2023/10/09 02:46:28;;;;;;;16.47;10.37;;;16.60;99.90;;;;;;5093569;28;20168;-71
2023/10/09 02:48:56;;;;;;;16.03;9.87;;;16.60;99.90;;;;;;5093882;28;20160;-71
2023/10/09 02:53:57;;;;;;;14.27;10.67;;;16.60;99.90;;;;;;5093882;28;20172;-72
2023/10/09 02:56:47;;;;;;;15.30;10.10;;;16.60;99.90;;;;;;5093787;28;20183;-72
2023/10/09 02:59:13;;;;;;;14.47;9.10;;;16.60;99.90;;;;;;5093566;28;20221;-71
2023/10/09 03:01:40;;;;;;;11.83;9.67;;;16.50;99.90;;;;;;5093465;28;20200;-71
2023/10/09 03:04:06;;;;;;;14.10;10.23;;;16.60;99.90;;;;;;5093639;28;20164;-73
2023/10/09 03:06:35;;;;;;;14.50;9.70;;;16.60;99.90;;;;;;5093475;28;20159;-72
2023/10/09 03:09:16;;;;;;;12.03;9.67;;;16.60;99.90;;;;;;5091637;28;20195;-71
2023/10/09 03:11:53;;;;;;;12.37;9.83;;;16.60;99.90;;;;;;5093382;28;20171;-72
2023/10/09 03:14:20;;;;;;;13.53;10.37;;;16.50;99.90;;;;;;5092282;28;20201;-72
2023/10/09 03:16:48;;;;;;;13.53;9.90;;;16.50;99.90;;;;;;5093002;28;20167;-71
2023/10/09 03:19:13;;;;;;;12.57;9.60;;;16.50;99.90;;;;;;5093168;28;20631;-71
2023/10/09 03:21:40;;;;;;;14.63;10.07;;;16.50;99.90;;;;;;5092868;28;20239;-72
2023/10/09 03:24:06;;;;;;;14.17;9.57;;;16.40;99.90;;;;;;5093100;28;20175;-71
2023/10/09 03:26:32;;;;;;;12.50;10.40;;;16.40;99.90;;;;;;5093055;28;20175;-71
2023/10/09 03:29:01;;;;;;;15.17;10.33;;;16.40;99.90;;;;;;5093385;28;20198;-72
2023/10/09 03:31:31;;;;;;;15.00;10.17;;;16.40;99.90;;;;;;5092765;28;20153;-71
2023/10/09 03:33:57;;;;;;;17.73;11.00;;;16.40;99.90;;;;;;5093120;28;20191;-71
2023/10/09 03:36:26;;;;;;;17.43;10.30;;;16.40;99.90;;;;;;5092744;28;20171;-71
2023/10/09 03:38:55;;;;;;;16.53;10.97;;;16.30;99.90;;;;;;5093040;28;20182;-71
2023/10/09 03:41:21;;;;;;;15.97;10.77;;;16.30;99.90;;;;;;5092685;28;20253;-71
2023/10/09 03:43:47;;;;;;;12.93;10.07;;;16.30;99.90;;;;;;5093056;28;20172;-70
2023/10/09 03:46:26;;;;;;;14.87;10.40;;;16.30;99.90;;;;;;5092665;28;20175;-71
2023/10/09 03:48:52;;;;;;;14.60;10.37;;;16.20;99.90;;;;;;5093030;28;20258;-71
2023/10/09 03:51:21;;;;;;;15.10;10.07;;;16.20;99.90;;;;;;5092920;28;20207;-71
2023/10/09 03:53:52;;;;;;;15.90;10.53;;;16.20;99.90;;;;;;5092564;28;20539;-72
2023/10/09 03:56:20;;;;;;;16.37;10.40;;;16.20;99.90;;;;;;5092341;28;20686;-70
2023/10/09 03:58:49;;;;;;;13.80;10.50;;;16.20;99.90;;;;;;5093105;28;20204;-71
2023/10/09 04:01:29;;;;;;;13.03;10.03;;;16.20;99.90;;;;;;5093094;28;20204;-70
2023/10/09 04:03:59;;;;;;;18.17;10.60;;;16.20;99.90;;;;;;5092646;28;20176;-71
2023/10/09 04:06:32;;;;;;;13.57;10.33;;;16.20;99.90;;;;;;5092778;28;20171;-72
2023/10/09 04:09:27;;;;;;;13.27;10.07;;;16.20;99.90;;;;;;5092724;28;20195;-72
2023/10/09 04:14:54;;;;;;;15.33;10.33;;;16.20;99.90;;;;;;5092431;28;20697;-71
2023/10/09 04:17:33;;;;;;;12.20;9.90;;;16.20;99.90;;;;;;5091328;28;20256;-71
2023/10/09 04:22:50;;;;;;;15.20;10.73;;;16.20;99.90;;;;;;5096142;28;20336;-71
2023/10/09 04:25:28;;;;;;;12.97;9.87;;;16.20;99.90;;;;;;5096372;28;20163;-72
2023/10/09 04:28:09;;;;;;;13.90;10.37;;;16.20;99.90;;;;;;5095826;28;20173;-72
2023/10/09 04:30:46;;;;;;;16.13;10.27;;;16.20;99.90;;;;;;5094344;28;20176;-71
2023/10/09 04:38:55;;;;;;;12.37;10.30;;;16.20;99.90;;;;;;5095829;28;20529;-72
2023/10/09 04:41:28;;;;;;;13.47;9.80;;;16.20;99.90;;;;;;5095685;28;20191;-71
2023/10/09 04:44:16;;;;;;;13.50;10.43;;;16.30;99.90;;;;;;5095739;28;20192;-71
2023/10/09 04:46:44;;;;;;;14.67;11.23;;;16.30;99.90;;;;;;5095547;28;20171;-71
2023/10/09 04:49:29;;;;;;;16.70;10.50;;;16.20;99.90;;;;;;5095759;28;20196;-71
2023/10/09 04:52:18;;;;;;;17.37;10.93;;;16.20;99.90;;;;;;5095779;28;20176;-71
2023/10/09 04:57:29;;;;;;;14.43;10.30;;;16.20;99.90;;;;;;5095071;28;20178;-72
2023/10/09 04:59:58;;;;;;;13.80;10.80;;;16.10;99.90;;;;;;5095261;28;20190;-72
2023/10/09 05:02:24;;;;;;;19.20;10.80;;;16.20;99.90;;;;;;5095546;28;20209;-71
2023/10/09 05:05:01;;;;;;;17.80;12.00;;;16.20;99.90;;;;;;5094353;28;20170;-71
2023/10/09 05:10:19;;;;;;;20.70;10.80;;;16.20;99.90;;;;;;5094776;28;20193;-72
2023/10/09 05:12:56;;;;;;;18.50;11.47;;;16.20;99.90;;;;;;5094795;28;20186;-71
2023/10/09 05:15:29;;;;;;;17.17;11.03;;;16.10;99.90;;;;;;5094125;28;20581;-71
2023/10/09 05:18:02;;;;;;;15.33;10.87;;;16.20;99.90;;;;;;5095271;28;20195;-71
2023/10/09 05:23:23;;;;;;;15.57;11.30;;;16.10;99.90;;;;;;5094617;28;20212;-72
2023/10/09 05:25:53;;;;;;;16.90;11.30;;;16.10;99.90;;;;;;5095011;28;20167;-72
2023/10/09 05:28:31;;;;;;;17.13;11.97;;;16.10;99.90;;;;;;5094722;28;20224;-72
2023/10/09 05:31:07;;;;;;;16.23;11.77;;;16.10;99.90;;;;;;5094021;28;20179;-73
2023/10/09 05:33:36;;;;;;;17.40;11.27;;;16.10;99.90;;;;;;5094332;28;20214;-71
2023/10/09 05:38:58;;;;;;;19.17;11.83;;;16.20;99.90;;;;;;5094687;28;20198;-72
2023/10/09 05:47:34;;;;;;;17.00;11.67;;;16.20;99.90;;;;;;4992855;28;20210;-72
2023/10/09 06:06:06;;;;;;;22.57;12.73;;;16.10;99.90;;;;;;4991495;28;20179;-72
2023/10/09 06:32:50;;;;;;;19.13;11.67;;;16.20;99.90;;;;;;5092890;28;20681;-71
2023/10/09 06:35:18;;;;;;;17.73;12.67;;;16.20;99.90;;;;;;5093414;28;20167;-72
2023/10/09 06:45:54;;;;;;;23.70;13.03;;;16.20;99.90;;;;;;5093177;28;20175;-72
2023/10/09 06:59:21;;;;;;;19.77;12.90;;;16.20;99.90;;;;;;5092891;28;20174;-72
2023/10/09 07:02:25;;;;;;;22.23;13.73;;;16.20;99.90;;;;;;5091247;28;20208;-72
2023/10/09 07:07:02;;;;;;;19.60;12.87;;;16.50;99.90;;;;;;5092681;28;20634;-73
2023/10/09 07:12:26;;;;;;;21.07;13.60;;;16.70;99.90;;;;;;5093183;28;20250;-73
2023/10/09 07:15:01;;;;;;;22.90;12.88;;;16.80;99.90;;;;;;5092437;28;20252;-72
2023/10/09 07:20:15;;;;;;;22.57;13.20;;;17.10;99.90;;;;;;5092098;28;20274;-72
2023/10/09 07:22:56;;;;;;;18.13;12.60;;;17.30;99.90;;;;;;5091230;28;20301;-72
2023/10/09 07:25:32;;;;;;;21.48;13.30;;;17.30;99.90;;;;;;5092635;28;20181;-73
2023/10/09 07:27:59;;;;;;;19.38;12.55;;;17.50;99.90;;;;;;5092787;28;20168;-72
2023/10/09 07:36:14;;;;;;;23.27;13.27;;;17.60;99.90;;;;;;5093093;28;20668;-72
2023/10/09 07:38:23;;;;;;;20.70;12.98;;;17.50;99.90;;;;;;5083776;28;20606;-73
2023/10/09 07:43:39;;;;;;;21.23;12.45;;;17.80;99.90;;;;;;5092625;28;20190;-72
2023/10/09 07:48:53;;;;;;;24.17;12.45;;;18.30;99.90;;;;;;5092108;28;20540;-73
2023/10/09 07:51:23;;;;;;;17.40;12.68;;;19.20;99.90;;;;;;5092512;28;20266;-73
2023/10/09 07:53:57;;;;;;;17.33;11.45;;;20.10;99.90;;;;;;5093370;28;20175;-74
2023/10/09 07:56:23;;;;;;;15.55;11.30;;;21.60;99.90;;;;;;5096543;28;20359;-74
2023/10/09 07:58:49;;;;;;;19.55;12.10;;;22.30;99.90;;;;;;5096700;28;20172;-75
2023/10/09 08:01:16;;;;;;;16.42;11.45;;;22.80;99.90;;;;;;5095485;28;20171;-73
2023/10/09 08:04:10;;;;;;;15.82;11.55;;;23.10;99.90;;;;;;5096487;28;20175;-71
2023/10/09 08:06:42;;;;;;;18.02;11.90;;;22.40;1.00;;;;;;5096501;28;20168;-71
2023/10/09 08:17:16;;;;;;;17.67;13.02;;;20.50;99.90;;;;;;5096157;28;20179;-71
2023/10/09 08:19:57;;;;;;;19.88;12.98;;;19.70;99.90;;;;;;5096259;28;20180;-72
2023/10/09 08:24:58;;;;;;;20.85;14.10;;;19.30;99.90;;;;;;5095923;28;20736;-70
2023/10/09 08:33:03;;;;;;;19.25;12.88;;;19.40;99.90;;;;;;5096190;28;20302;-71
2023/10/09 08:35:47;;;;;;;18.27;13.07;;;19.60;99.90;;;;;;5095340;28;20168;-72
2023/10/09 08:38:23;;;;;;;23.92;12.55;;;19.60;99.90;;;;;;5095903;28;20198;-72
2023/10/09 08:40:50;;;;;;;21.17;12.25;;;20.00;99.90;;;;;;5094836;28;20619;-73
2023/10/09 08:43:20;;;;;;;19.05;12.85;;;20.40;99.90;;;;;;5095994;28;20204;-72
2023/10/09 08:45:53;;;;;;;18.55;12.48;;;20.30;99.90;;;;;;5095885;28;20168;-71
2023/10/09 08:48:21;;;;;;;19.98;13.02;;;20.50;99.90;;;;;;5095784;28;20671;-71
2023/10/09 08:50:54;;;;;;;19.40;13.88;;;20.70;99.90;;;;;;5093955;28;20169;-72
2023/10/09 08:53:21;;;;;;;23.30;13.75;;;20.60;99.90;;;;;;5095052;28;20168;-73
2023/10/09 08:55:47;;;;;;;20.60;13.82;;;20.50;99.90;;;;;;5095516;28;20670;-72
2023/10/09 08:58:19;;;;;;;25.88;13.48;;;20.20;99.90;;;;;;5095581;28;20161;-71
2023/10/09 09:00:46;;;;;;;19.35;13.35;;;20.00;99.90;;;;;;5095755;28;20195;-71
2023/10/09 09:03:25;;;;;;;18.75;12.15;;;19.70;99.90;;;;;;5095142;28;20211;-72
2023/10/09 09:06:01;;;;;;;22.52;13.80;;;19.80;99.90;;;;;;5094407;28;20168;-72
2023/10/09 09:08:29;;;;;;;19.58;13.43;;;20.30;99.90;;;;;;5093991;28;20191;-71
2023/10/09 09:11:12;;;;;;;24.92;13.57;;;20.50;99.90;;;;;;5095395;28;20164;-72
2023/10/09 09:13:42;;;;;;;17.27;13.02;;;20.50;99.90;;;;;;5094958;28;20233;-72
2023/10/09 09:16:18;;;;;;;19.63;12.80;;;20.40;99.90;;;;;;5094501;28;20187;-71
2023/10/09 09:18:52;;;;;;;18.35;13.27;;;20.50;99.90;;;;;;5094791;28;20238;-72
2023/10/09 09:21:24;;;;;;;18.75;13.52;;;20.70;99.90;;;;;;5094422;28;20227;-72
2023/10/09 09:24:15;;;;;;;18.90;12.80;;;20.60;99.90;;;;;;5094840;28;20210;-72
2023/10/09 09:27:31;;;;;;;21.02;13.02;;;20.80;99.90;;;;;;5094554;28;20168;-73
2023/10/09 09:29:36;;;;;;;18.92;13.23;;;21.10;99.90;;;;;;5080768;28;20211;-73
2023/10/09 09:32:20;;;;;;;20.52;13.73;;;21.30;99.90;;;;;;5094625;28;20159;-73
2023/10/09 09:34:56;;;;;;;18.38;12.70;;;21.00;99.90;;;;;;5095144;28;20164;-73
2023/10/09 09:37:28;;;;;;;18.20;13.38;;;21.20;99.90;;;;;;5094378;28;20277;-73
2023/10/09 09:40:00;;;;;;;17.98;12.45;;;21.30;99.90;;;;;;5094756;28;20168;-72
2023/10/09 09:42:32;;;;;;;18.23;12.88;;;21.10;99.90;;;;;;5094688;28;20191;-73
2023/10/09 09:45:01;;;;;;;19.15;13.20;;;21.20;99.90;;;;;;5094361;28;20184;-73
2023/10/09 09:47:26;;;;;;;18.55;12.95;;;21.10;99.90;;;;;;5093756;28;20179;-72
2023/10/09 09:50:11;;;;;;;24.23;12.75;;;21.10;99.90;;;;;;5095105;28;20180;-73
2023/10/09 09:52:40;;;;;;;18.40;12.95;;;21.30;99.90;;;;;;5094135;28;20186;-73
2023/10/09 09:55:16;;;;;;;20.80;13.10;;;21.80;99.90;;;;;;5094227;28;20214;-73
2023/10/09 09:57:45;;;;;;;21.58;12.52;;;22.20;99.90;;;;;;5094316;28;20223;-73
2023/10/09 10:03:07;;;;;;;18.33;11.70;;;23.00;99.90;;;;;;5094264;28;20215;-73
2023/10/09 10:05:34;;;;;;;14.77;11.40;;;22.40;99.90;;;;;;5094494;28;20186;-73
2023/10/09 10:08:01;;;;;;;17.52;12.43;;;22.20;99.90;;;;;;5093929;28;20271;-72
2023/10/09 10:10:53;;;;;;;16.17;12.52;;;22.20;99.90;;;;;;5094016;28;20176;-72
2023/10/09 10:13:40;;;;;;;20.75;13.32;;;21.90;99.90;;;;;;5094159;28;20168;-73
2023/10/09 10:16:15;;;;;;;20.15;13.63;;;22.00;99.90;;;;;;5093412;28;20195;-73
2023/10/09 10:21:49;;;;;;;17.02;12.77;;;21.60;99.90;;;;;;5093776;28;20776;-72
2023/10/09 10:24:28;;;;;;;16.52;12.73;;;21.50;99.90;;;;;;5093557;28;20175;-73
2023/10/09 10:27:24;;;;;;;15.85;12.63;;;21.90;99.90;;;;;;5092395;28;20168;-73
2023/10/09 10:30:23;;;;;;;22.83;13.73;;;21.80;99.90;;;;;;5093770;28;20161;-73
2023/10/09 10:32:52;;;;;;;17.77;12.43;;;22.20;99.90;;;;;;5091978;28;20168;-73
2023/10/09 10:35:32;;;;;;;18.15;12.63;;;22.50;99.90;;;;;;5093050;28;20179;-73
2023/10/09 10:40:46;;;;;;;17.35;12.82;;;22.60;99.90;;;;;;5093246;28;20168;-72
2023/10/09 10:46:24;;;;;;;18.23;12.90;;;22.20;99.90;;;;;;5010942;28;20166;-72
2023/10/09 10:49:00;;;;;;;16.75;12.13;;;22.40;99.90;;;;;;5079551;28;20261;-73
2023/10/09 10:51:37;;;;;;;15.35;12.80;;;22.70;99.90;;;;;;5093115;28;20623;-73
2023/10/09 10:56:48;;;;;;;15.82;12.60;;;22.10;99.90;;;;;;5092818;28;20186;-73
2023/10/09 10:59:22;;;;;;;17.85;11.98;;;22.20;99.90;;;;;;5092952;28;20179;-73
2023/10/09 11:04:27;;;;;;;15.70;12.30;;;22.50;99.90;;;;;;5093578;28;20646;-74
2023/10/09 11:07:06;;;;;;;17.20;11.50;;;22.70;99.90;;;;;;5092653;28;20254;-73
2023/10/09 11:16:14;;;;;;;15.80;11.55;;;22.80;99.90;;;;;;5092271;28;20221;-72
2023/10/09 11:18:16;;;;;;;17.75;12.02;;;23.10;99.90;;;;;;5081553;28;20211;-72
2023/10/09 11:20:56;;;;;;;17.55;12.77;;;23.20;99.90;;;;;;5092627;28;20280;-72
2023/10/09 11:26:21;;;;;;;16.35;11.90;;;23.20;99.90;;;;;;5050939;28;20260;-72
2023/10/09 11:29:13;;;;;;;18.42;11.50;;;23.30;99.90;;;;;;5092120;28;20631;-74
2023/10/09 11:32:02;;;;;;;15.77;11.32;;;23.90;99.90;;;;;;5093201;28;20168;-73
2023/10/09 11:34:37;;;;;;;17.65;12.00;;;23.80;99.90;;;;;;5081468;28;20219;-72
2023/10/09 11:37:13;;;;;;;17.48;11.13;;;23.40;99.90;;;;;;5090882;28;20171;-73
2023/10/09 11:39:55;;;;;;;18.00;12.73;;;23.50;99.90;;;;;;5092437;28;20171;-73
2023/10/09 11:42:35;;;;;;;15.93;11.35;;;23.50;99.90;;;;;;5092586;28;20686;-73
2023/10/09 11:45:23;;;;;;;16.80;11.23;;;23.50;99.90;;;;;;5091590;28;20164;-72
2023/10/09 11:47:59;;;;;;;17.38;11.73;;;23.80;99.90;;;;;;5090386;28;20191;-72
2023/10/09 11:50:51;;;;;;;15.98;11.45;;;24.20;99.90;;;;;;5091621;28;20199;-72
2023/10/09 11:53:33;;;;;;;15.68;11.07;;;24.50;99.90;;;;;;5095776;28;20220;-72
2023/10/09 11:56:00;;;;;;;18.92;11.02;;;24.50;99.90;;;;;;5100749;28;20303;-72
2023/10/09 11:58:26;;;;;;;15.77;10.80;;;24.50;99.90;;;;;;5095576;28;20172;-72
2023/10/09 12:01:05;;;;;;;14.95;10.63;;;24.20;99.90;;;;;;5108578;28;20254;-72
2023/10/09 12:03:31;;;;;;;14.88;10.82;;;24.40;99.90;;;;;;5099158;28;20326;-73
2023/10/09 12:06:05;;;;;;;15.93;10.70;;;24.60;99.90;;;;;;5100508;28;20172;-74
2023/10/09 12:08:34;;;;;;;21.17;11.55;;;24.70;99.80;;;;;;5107362;28;20222;-73
2023/10/09 12:11:08;;;;;;;14.45;11.10;;;25.00;99.80;;;;;;5093639;28;20159;-72
2023/10/09 12:13:33;;;;;;;15.00;10.32;;;24.90;99.60;;;;;;5102806;28;20642;-72
2023/10/09 12:15:59;;;;;;;15.82;10.82;;;25.10;99.30;;;;;;5102800;28;20179;-73
2023/10/09 12:18:25;;;;;;;17.85;10.77;;;25.20;98.90;;;;;;5096043;28;20210;-73
2023/10/09 12:20:52;;;;;;;13.70;10.07;;;25.00;98.70;;;;;;5106892;28;20219;-72
2023/10/09 12:23:22;;;;;;;20.20;10.88;;;24.90;98.80;;;;;;5096951;28;20217;-75
2023/10/09 12:25:56;;;;;;;15.88;11.20;;;24.90;98.90;;;;;;5101062;28;20180;-73
2023/10/09 12:28:22;;;;;;;34.35;11.95;;;24.70;99.10;;;;;;5105510;28;20276;-74
2023/10/09 12:30:50;;;;;;;16.35;11.27;;;24.70;99.20;;;;;;5093583;28;20620;-73
2023/10/09 12:33:19;;;;;;;13.95;11.00;;;24.30;99.00;;;;;;5105599;28;20305;-74
2023/10/09 12:35:47;;;;;;;17.13;10.85;;;24.20;99.60;;;;;;5101238;28;20195;-73
2023/10/09 12:38:13;;;;;;;14.65;10.30;;;24.30;99.40;;;;;;5095852;28;20203;-73
2023/10/09 12:40:41;;;;;;;14.20;10.15;;;24.40;99.30;;;;;;5108635;28;20170;-73
2023/10/09 12:43:15;;;;;;;15.25;9.93;;;24.50;99.50;;;;;;5093600;28;20250;-73
2023/10/09 12:45:45;;;;;;;14.95;10.02;;;24.60;99.40;;;;;;5095434;28;20188;-73
2023/10/09 12:48:10;;;;;;;15.88;10.80;;;24.90;98.90;;;;;;5095338;28;20164;-73
2023/10/09 12:50:44;;;;;;;16.25;11.15;;;24.80;98.90;;;;;;5094500;28;20172;-73
2023/10/09 12:53:10;;;;;;;15.70;10.18;;;24.50;99.30;;;;;;5095296;28;20289;-73
2023/10/09 12:55:40;;;;;;;17.60;10.32;;;24.40;99.60;;;;;;5094634;28;20172;-74
2023/10/09 12:58:07;;;;;;;15.02;10.98;;;24.40;99.60;;;;;;5106355;28;20617;-74
2023/10/09 13:00:39;;;;;;;12.65;10.07;;;24.40;99.80;;;;;;5100139;28;20178;-74
2023/10/09 13:03:32;;;;;;;13.25;10.52;;;24.40;99.70;;;;;;5113938;28;20217;-73
2023/10/09 13:05:54;;;;;;;16.48;10.73;;;24.20;99.90;;;;;;5105447;28;20188;-75
2023/10/09 13:08:31;;;;;;;15.93;10.75;;;23.70;99.90;;;;;;5107861;28;20187;-74
2023/10/09 13:11:04;;;;;;;12.98;10.55;;;23.80;99.90;;;;;;5096175;28;20175;-74
2023/10/09 13:13:50;;;;;;;16.70;11.32;;;23.80;99.90;;;;;;5108532;28;20519;-73
2023/10/09 13:16:24;;;;;;;16.13;10.75;;;23.60;99.90;;;;;;5107044;28;20183;-74
2023/10/09 13:18:51;;;;;;;16.10;11.27;;;23.70;99.90;;;;;;5113063;28;20198;-74
2023/10/09 13:21:21;;;;;;;16.95;10.38;;;24.10;99.90;;;;;;5098678;28;20226;-73
2023/10/09 13:23:47;;;;;;;18.95;10.48;;;24.00;99.90;;;;;;5105723;28;20172;-74
2023/10/09 13:26:32;;;;;;;15.57;10.23;;;23.90;99.90;;;;;;5104802;28;20179;-74
2023/10/09 13:28:59;;;;;;;17.77;10.30;;;23.90;99.90;;;;;;5097159;28;20175;-75
2023/10/09 13:31:26;;;;;;;14.63;10.68;;;23.90;99.90;;;;;;5108703;28;20182;-73
2023/10/09 13:33:55;;;;;;;17.05;9.82;;;23.90;99.90;;;;;;5102183;28;20171;-73
2023/10/09 13:36:31;;;;;;;11.43;9.57;;;23.60;99.90;;;;;;5099426;28;20179;-73
2023/10/09 13:39:02;;;;;;;15.38;10.60;;;23.80;99.90;;;;;;5109976;28;20175;-73
2023/10/09 13:41:31;;;;;;;18.13;10.05;;;23.90;99.90;;;;;;5099605;28;20167;-74
2023/10/09 13:43:56;;;;;;;15.15;10.25;;;24.10;99.90;;;;;;5104554;28;20179;-74
2023/10/09 13:46:23;;;;;;;14.25;11.13;;;23.90;99.90;;;;;;5106906;28;20179;-74
2023/10/09 13:48:49;;;;;;;20.83;11.77;;;23.70;99.90;;;;;;5096854;28;20175;-74
2023/10/09 13:51:18;;;;;;;15.20;10.80;;;23.70;99.90;;;;;;5109054;28;20171;-74
2023/10/09 13:53:47;;;;;;;14.02;10.27;;;23.80;99.90;;;;;;5100171;28;20236;-74
2023/10/09 13:56:21;;;;;;;15.52;11.38;;;23.90;99.90;;;;;;5101432;28;20168;-75
2023/10/09 13:58:49;;;;;;;16.17;10.65;;;23.70;99.90;;;;;;5110464;28;20171;-73
2023/10/09 14:01:36;;;;;;;16.25;10.13;;;23.80;99.90;;;;;;5097775;28;20167;-73
2023/10/09 14:04:01;;;;;;;14.50;11.23;;;23.90;99.90;;;;;;5102215;28;20248;-73
2023/10/09 14:06:30;;;;;;;17.27;11.35;;;23.90;99.90;;;;;;5107091;28;20563;-75
2023/10/09 14:08:57;;;;;;;16.13;11.40;;;24.10;99.90;;;;;;5095781;28;20210;-74
2023/10/09 14:11:24;;;;;;;12.60;10.60;;;24.00;99.90;;;;;;5113589;27;20179;-75
2023/10/09 14:13:51;;;;;;;16.45;10.45;;;24.00;99.90;;;;;;5112490;28;20266;-73
2023/10/09 14:16:27;;;;;;;18.98;11.57;;;24.10;99.90;;;;;;5105795;28;20187;-73
2023/10/09 14:18:57;;;;;;;14.20;10.75;;;23.90;99.90;;;;;;5093409;28;20180;-74
2023/10/09 14:21:30;;;;;;;14.30;11.13;;;24.10;99.90;;;;;;5092151;28;20704;-73
2023/10/09 14:23:57;;;;;;;13.57;11.00;;;23.90;99.90;;;;;;5091940;28;20253;-75
2023/10/09 14:26:27;;;;;;;19.77;11.30;;;23.70;99.90;;;;;;5092353;28;20168;-73
2023/10/09 14:28:56;;;;;;;14.55;10.43;;;24.10;99.90;;;;;;5091926;28;20658;-74
2023/10/09 14:31:26;;;;;;;14.10;10.85;;;24.30;99.90;;;;;;5093007;28;20194;-75
2023/10/09 14:33:56;;;;;;;16.60;11.73;;;24.30;99.90;;;;;;5093156;28;20251;-74
2023/10/09 14:36:22;;;;;;;16.42;11.55;;;24.10;99.90;;;;;;5092934;28;20171;-74
2023/10/09 14:38:55;;;;;;;17.00;11.50;;;23.80;99.90;;;;;;5093065;28;20176;-74
2023/10/09 14:41:23;;;;;;;17.85;11.15;;;23.70;99.90;;;;;;5092641;28;20171;-74
2023/10/09 14:43:50;;;;;;;16.50;11.95;;;23.70;99.90;;;;;;5093309;28;20179;-74
2023/10/09 14:46:20;;;;;;;15.43;11.85;;;23.50;99.90;;;;;;5092762;28;20176;-74
2023/10/09 14:48:46;;;;;;;20.17;12.02;;;23.40;99.90;;;;;;5092708;28;20266;-74
2023/10/09 14:51:13;;;;;;;16.85;11.90;;;23.50;99.90;;;;;;5092956;28;20255;-73
2023/10/09 14:53:40;;;;;;;15.02;11.43;;;23.40;99.90;;;;;;5092294;28;20179;-73
2023/10/09 14:56:08;;;;;;;17.83;11.23;;;23.40;99.90;;;;;;5092887;28;20270;-75
2023/10/09 14:58:35;;;;;;;16.50;11.23;;;23.40;99.90;;;;;;5092858;28;20639;-74
2023/10/09 15:01:10;;;;;;;17.30;11.23;;;23.50;99.90;;;;;;5091518;28;20229;-73
2023/10/09 15:03:39;;;;;;;20.27;11.73;;;23.00;99.90;;;;;;5090015;28;20207;-74
2023/10/09 15:06:11;;;;;;;15.55;12.05;;;22.90;99.90;;;;;;5090083;28;20164;-75
2023/10/09 15:08:37;;;;;;;17.33;11.70;;;22.90;99.90;;;;;;5092799;28;20300;-74
2023/10/09 15:11:03;;;;;;;15.90;11.77;;;23.10;99.90;;;;;;5092489;28;20168;-75
2023/10/09 15:13:30;;;;;;;17.95;12.48;;;23.10;99.90;;;;;;5092550;28;20217;-75
2023/10/09 15:15:56;;;;;;;15.98;12.25;;;23.10;99.90;;;;;;5092352;28;20219;-75
2023/10/09 15:18:22;;;;;;;16.02;11.40;;;22.90;99.90;;;;;;5091267;28;20196;-74
2023/10/09 15:20:49;;;;;;;16.05;12.48;;;23.00;99.90;;;;;;5092131;28;20215;-75
2023/10/09 15:23:14;;;;;;;18.25;11.70;;;22.90;99.90;;;;;;5092218;28;20219;-74
2023/10/09 15:25:45;;;;;;;16.45;12.05;;;22.90;99.90;;;;;;5092135;28;20191;-74
2023/10/09 15:28:12;;;;;;;16.63;12.40;;;22.70;99.90;;;;;;5092497;28;20201;-73
2023/10/09 15:30:38;;;;;;;18.23;12.95;;;22.60;99.90;;;;;;5092506;28;20284;-74
2023/10/09 15:33:07;;;;;;;19.02;12.60;;;22.60;99.90;;;;;;5092097;28;20201;-73
2023/10/09 15:35:36;;;;;;;18.67;12.00;;;22.50;99.90;;;;;;5091918;28;20171;-74
2023/10/09 15:38:03;;;;;;;15.80;12.07;;;22.50;99.90;;;;;;5092066;28;20207;-74
2023/10/09 15:40:36;;;;;;;18.80;11.70;;;22.50;99.90;;;;;;5092214;28;20312;-75